Time;durP1;ratioP1;P1;durP2;ratioP2;P2;SDS_P1;SDS_P2;PMS_P1;PMS_P2;Temp;Humidity;BMP_temperature;BMP_pressure;BME280_temperature;BME280_humidity;BME280_pressure;Samples;Min_cycle;Max_cycle;Signal;HPM_P1;HPM_P2
2021/03/20 00:01:05;;;;;;;13.75;6.80;;;;;;;-0.75;85.26;102379.44;4956931;28;20031;-76
2021/03/20 00:03:31;;;;;;;15.30;6.57;;;;;;;-0.70;85.09;102388.28;4955548;28;20061;-77
2021/03/20 00:05:57;;;;;;;13.02;6.80;;;;;;;-0.60;84.73;102393.75;4954861;28;20034;-77
2021/03/20 00:08:24;;;;;;;14.77;7.15;;;;;;;-0.68;84.90;102386.22;4955270;28;20484;-76
2021/03/20 00:10:50;;;;;;;13.32;6.72;;;;;;;-0.78;84.73;102386.03;4955233;28;20038;-77
2021/03/20 00:13:18;;;;;;;13.75;6.50;;;;;;;-0.68;84.74;102393.34;4953521;28;20034;-76
2021/03/20 00:15:44;;;;;;;12.73;6.75;;;;;;;-0.70;85.07;102382.19;4951015;28;20089;-77
2021/03/20 00:18:10;;;;;;;12.85;6.25;;;;;;;-0.65;85.10;102380.44;4956579;28;20684;-77
2021/03/20 00:20:40;;;;;;;12.45;6.65;;;;;;;-0.55;84.98;102385.91;4942405;28;20031;-77
2021/03/20 00:23:06;;;;;;;12.13;5.68;;;;;;;-0.71;85.53;102370.81;4955155;28;20484;-77
2021/03/20 00:25:33;;;;;;;13.77;6.43;;;;;;;-0.57;85.18;102380.06;4952809;28;20035;-77
2021/03/20 00:28:00;;;;;;;15.57;5.97;;;;;;;-0.55;86.66;102375.34;4950520;28;20458;-77
2021/03/20 00:30:26;;;;;;;11.40;6.03;;;;;;;-0.44;85.94;102387.69;4943198;28;20085;-76
2021/03/20 00:32:51;;;;;;;11.60;5.68;;;;;;;-0.47;85.64;102382.91;4975848;28;20047;-77
2021/03/20 00:35:19;;;;;;;12.25;6.20;;;;;;;-0.66;86.13;102378.84;4959021;28;20126;-75
2021/03/20 00:37:45;;;;;;;14.00;6.28;;;;;;;-0.60;86.84;102377.88;4952139;29;20067;-77
2021/03/20 00:40:14;;;;;;;13.63;5.95;;;;;;;-0.51;86.65;102378.31;4956606;28;20058;-77
2021/03/20 00:42:39;;;;;;;10.77;6.43;;;;;;;-0.45;86.67;102391.41;4964656;28;20582;-76
2021/03/20 00:45:08;;;;;;;9.57;5.60;;;;;;;-0.49;87.05;102395.56;4954862;28;20035;-76
2021/03/20 00:47:33;;;;;;;14.02;5.45;;;;;;;-0.50;86.55;102398.41;4950528;28;20467;-77
2021/03/20 00:49:59;;;;;;;11.63;5.38;;;;;;;-0.43;86.88;102391.16;4968521;28;20066;-76
2021/03/20 00:52:25;;;;;;;14.73;5.82;;;;;;;-0.36;86.62;102392.59;4970847;28;20114;-76
2021/03/20 00:54:50;;;;;;;13.05;6.13;;;;;;;-0.27;85.94;102403.59;4957034;28;20031;-76
2021/03/20 00:57:16;;;;;;;12.88;5.57;;;;;;;-0.37;85.69;102408.72;4959452;28;20105;-76
2021/03/20 00:59:41;;;;;;;11.30;6.07;;;;;;;-0.31;85.56;102402.47;4955434;29;20384;-76
2021/03/20 01:02:07;;;;;;;16.52;6.25;;;;;;;-0.18;84.97;102400.31;4971039;28;20050;-74
2021/03/20 01:04:32;;;;;;;10.38;5.47;;;;;;;-0.39;85.62;102401.03;4958642;28;20093;-77
2021/03/20 01:06:58;;;;;;;12.35;6.03;;;;;;;-0.31;86.09;102390.03;4976679;28;20093;-77
2021/03/20 01:09:23;;;;;;;10.63;5.53;;;;;;;-0.42;85.74;102390.91;4977526;28;20027;-75
2021/03/20 01:11:49;;;;;;;12.70;5.78;;;;;;;-0.39;85.98;102379.88;4962050;28;20030;-75
2021/03/20 01:14:14;;;;;;;10.45;5.20;;;;;;;-0.45;85.37;102382.66;4968901;28;20034;-75
2021/03/20 01:16:40;;;;;;;13.27;6.63;;;;;;;-0.48;85.69;102389.22;4987433;23;20038;-72
2021/03/20 01:19:06;;;;;;;14.35;5.53;;;;;;;-0.55;85.59;102385.91;4964904;28;20398;-72
2021/03/20 01:21:31;;;;;;;10.48;5.10;;;;;;;-0.57;86.33;102381.91;4974390;28;20035;-72
2021/03/20 01:23:58;;;;;;;10.70;5.38;;;;;;;-0.65;86.29;102395.50;4981543;28;20362;-72
2021/03/20 01:26:24;;;;;;;9.85;4.68;;;;;;;-0.76;87.05;102386.59;4974908;28;20166;-76
2021/03/20 01:28:49;;;;;;;7.97;4.65;;;;;;;-0.75;87.61;102384.72;4972841;28;20110;-74
2021/03/20 01:31:16;;;;;;;9.63;4.82;;;;;;;-0.83;87.47;102377.19;4973177;28;20026;-72
2021/03/20 01:33:42;;;;;;;11.90;4.65;;;;;;;-0.76;88.08;102373.38;4976573;28;20054;-73
2021/03/20 01:36:08;;;;;;;9.70;5.57;;;;;;;-0.79;87.52;102370.41;4969665;28;20035;-73
2021/03/20 01:38:35;;;;;;;12.68;5.13;;;;;;;-0.62;87.56;102376.53;4971352;28;20026;-74
2021/03/20 01:41:10;;;;;;;8.07;4.25;;;;;;;-0.71;87.21;102370.00;4956550;28;20035;-73
2021/03/20 01:43:36;;;;;;;10.40;4.57;;;;;;;-0.71;87.42;102360.22;4978036;28;20046;-74
2021/03/20 01:46:39;;;;;;;11.70;5.22;;;;;;;-0.72;87.79;102369.22;4974767;28;20034;-73
2021/03/20 01:49:35;;;;;;;10.43;4.38;;;;;;;-0.50;87.57;102385.19;4972624;28;20031;-76
2021/03/20 01:52:21;;;;;;;8.52;4.43;;;;;;;-0.48;87.65;102383.09;4971171;28;20160;-73
2021/03/20 01:54:54;;;;;;;13.07;4.85;;;;;;;-0.68;87.31;102375.63;4974715;28;20031;-73
2021/03/20 01:57:26;;;;;;;8.50;4.00;;;;;;;-0.45;86.98;102385.28;4970642;28;20385;-73
2021/03/20 01:59:52;;;;;;;;;;;;;;;-0.31;86.64;102381.31;4971319;28;20526;-75
2021/03/20 02:02:18;;;;;;;7.53;3.70;;;;;;;-0.22;85.98;102380.69;4963882;28;20282;-73
2021/03/20 02:04:44;;;;;;;7.45;3.70;;;;;;;-0.30;85.85;102373.13;4963688;28;20085;-73
2021/03/20 02:07:09;;;;;;;7.00;3.63;;;;;;;-0.31;86.27;102365.44;4969843;28;20505;-73
2021/03/20 02:09:36;;;;;;;7.05;3.50;;;;;;;-0.41;85.54;102366.06;4973628;28;20395;-73
2021/03/20 02:12:19;;;;;;;9.63;3.67;;;;;;;-0.47;84.89;102353.81;4973503;28;20446;-73
2021/03/20 02:15:22;;;;;;;7.57;3.10;;;;;;;-0.40;85.08;102361.56;4971990;28;20046;-72
2021/03/20 02:18:04;;;;;;;9.07;3.13;;;;;;;-0.40;85.59;102356.28;4964995;28;20479;-73
2021/03/20 02:20:54;;;;;;;7.82;3.42;;;;;;;-0.31;85.05;102349.56;4973163;28;20066;-72
2021/03/20 02:24:01;;;;;;;8.18;3.38;;;;;;;-0.29;85.01;102342.97;4971511;28;20054;-80
2021/03/20 02:26:38;;;;;;;9.10;3.97;;;;;;;-0.17;85.37;102351.63;4972821;28;20503;-73
2021/03/20 02:29:22;;;;;;;7.93;3.55;;;;;;;-0.08;85.16;102347.53;4973543;28;20054;-73
2021/03/20 02:31:48;;;;;;;5.63;3.30;;;;;;;0.13;84.88;102334.59;4969453;28;20130;-76
2021/03/20 02:34:35;;;;;;;6.82;3.20;;;;;;;0.13;83.78;102340.72;4968804;28;20102;-73
2021/03/20 02:37:32;;;;;;;10.10;4.10;;;;;;;0.48;82.65;102333.25;4964953;28;20035;-76
2021/03/20 02:40:27;;;;;;;10.27;4.40;;;;;;;0.39;81.23;102345.28;4962920;28;20453;-74
2021/03/20 02:43:05;;;;;;;7.97;4.05;;;;;;;0.40;81.37;102346.09;4948398;28;20051;-73
2021/03/20 02:45:35;;;;;;;10.13;4.00;;;;;;;0.40;81.18;102338.16;4976566;28;20039;-72
2021/03/20 02:48:14;;;;;;;8.45;4.03;;;;;;;0.50;81.09;102340.94;4961495;28;20463;-72
2021/03/20 02:50:59;;;;;;;8.40;3.80;;;;;;;0.73;80.49;102332.75;4971162;28;20081;-73
2021/03/20 02:53:37;;;;;;;11.73;3.40;;;;;;;0.74;79.54;102334.34;4970788;28;20039;-75
2021/03/20 02:56:05;;;;;;;6.63;3.10;;;;;;;0.74;79.92;102326.38;4962551;28;20034;-72
2021/03/20 02:58:37;;;;;;;6.90;3.00;;;;;;;0.72;79.75;102323.19;4973400;28;20033;-72
2021/03/20 03:01:09;;;;;;;7.00;2.70;;;;;;;0.76;79.91;102324.28;4976948;28;20043;-72
2021/03/20 03:03:39;;;;;;;6.80;2.95;;;;;;;0.84;79.06;102324.66;4976097;28;20390;-75
2021/03/20 03:06:10;;;;;;;9.02;2.80;;;;;;;0.87;78.84;102323.38;4971220;28;20039;-75
2021/03/20 03:09:05;;;;;;;;;;;;;;;1.12;77.73;102317.53;4971924;28;20435;-75
2021/03/20 03:11:58;;;;;;;3.83;2.10;;;;;;;1.11;77.00;102314.06;4967829;28;19981;-75
2021/03/20 03:14:34;;;;;;;4.28;2.42;;;;;;;0.86;77.54;102319.09;4961216;28;20042;-74
2021/03/20 03:17:02;;;;;;;3.80;2.33;;;;;;;0.86;77.77;102316.47;4963565;28;20414;-74
2021/03/20 03:19:48;;;;;;;6.10;2.03;;;;;;;0.85;77.05;102315.66;4972668;28;20549;-75
2021/03/20 03:22:53;;;;;;;3.83;1.90;;;;;;;0.93;75.85;102321.59;4961059;28;20447;-75
2021/03/20 03:25:22;;;;;;;4.85;1.67;;;;;;;1.11;75.47;102316.72;4976996;28;20518;-74
2021/03/20 03:27:51;;;;;;;5.35;1.70;;;;;;;1.20;74.53;102309.13;4969837;28;20510;-76
2021/03/20 03:30:20;;;;;;;3.40;2.00;;;;;;;1.13;73.60;102304.00;4961875;28;20683;-75
2021/03/20 03:32:50;;;;;;;2.75;1.40;;;;;;;0.95;75.42;102319.47;4972810;28;20022;-75
2021/03/20 03:35:24;;;;;;;2.88;1.88;;;;;;;1.13;74.87;102309.31;4960999;28;20034;-75
2021/03/20 03:37:58;;;;;;;3.47;1.90;;;;;;;1.09;75.48;102313.53;4965815;28;20067;-75
2021/03/20 03:40:42;;;;;;;4.05;2.20;;;;;;;1.13;75.23;102311.97;4970732;28;20030;-75
2021/03/20 03:43:09;;;;;;;4.00;1.75;;;;;;;1.19;74.26;102313.63;4963058;28;20038;-75
2021/03/20 03:45:36;;;;;;;5.90;1.88;;;;;;;1.26;74.65;102306.25;4991689;28;20033;-74
2021/03/20 03:48:03;;;;;;;3.50;1.77;;;;;;;1.29;74.70;102303.13;4960240;28;20054;-74
2021/03/20 03:50:33;;;;;;;2.88;1.50;;;;;;;1.20;75.27;102309.91;4962577;28;20030;-76
2021/03/20 03:53:02;;;;;;;2.85;1.73;;;;;;;1.22;75.37;102322.94;4958842;28;20503;-74
2021/03/20 03:55:28;;;;;;;4.60;1.67;;;;;;;1.43;74.94;102322.84;4992392;28;20065;-76
2021/03/20 03:58:12;;;;;;;3.58;1.40;;;;;;;1.50;74.19;102312.03;4955614;28;20118;-74
2021/03/20 04:00:40;;;;;;;2.72;1.30;;;;;;;1.55;73.62;102323.50;4966652;28;20173;-75
2021/03/20 04:03:16;;;;;;;2.60;1.50;;;;;;;1.61;72.98;102309.22;4980400;28;20035;-76
2021/03/20 04:05:48;;;;;;;1.98;1.30;;;;;;;1.62;72.48;102310.03;4966956;28;20054;-74
2021/03/20 04:08:42;;;;;;;4.53;1.77;;;;;;;1.62;72.23;102300.22;4971720;28;20483;-74
2021/03/20 04:11:36;;;;;;;4.13;1.55;;;;;;;1.53;71.80;102292.97;4966522;28;20387;-74
2021/03/20 04:14:16;;;;;;;3.78;1.80;;;;;;;1.38;71.12;102288.31;4984461;28;20406;-74
2021/03/20 04:16:48;;;;;;;4.45;1.65;;;;;;;1.46;71.66;102287.06;4968965;28;20035;-74
2021/03/20 04:19:30;;;;;;;2.60;1.45;;;;;;;1.52;70.98;102291.34;4979250;28;20035;-73
2021/03/20 04:22:28;;;;;;;4.65;1.83;;;;;;;1.53;71.33;102285.78;4958431;28;20042;-73
2021/03/20 04:25:29;;;;;;;2.92;1.60;;;;;;;1.64;71.17;102284.03;4972541;28;20614;-75
2021/03/20 04:28:18;;;;;;;7.22;1.80;;;;;;;1.51;70.98;102284.47;4950653;28;20040;-74
2021/03/20 04:30:51;;;;;;;6.00;1.90;;;;;;;1.56;70.38;102289.81;4959052;28;20045;-74
2021/03/20 04:33:35;;;;;;;3.90;1.52;;;;;;;1.48;71.13;102288.41;4970267;28;20027;-74
2021/03/20 04:36:06;;;;;;;4.20;1.50;;;;;;;1.60;71.15;102293.56;4959952;28;20082;-74
2021/03/20 04:38:32;;;;;;;;;;;;;;;1.47;71.41;102300.06;4968019;28;20042;-74
2021/03/20 04:41:01;;;;;;;2.28;1.38;;;;;;;1.27;72.56;102291.94;4969608;28;19918;-74
2021/03/20 04:43:30;;;;;;;5.32;1.88;;;;;;;1.24;73.17;102304.94;4971723;28;20034;-74
2021/03/20 04:46:05;;;;;;;4.57;1.45;;;;;;;1.33;72.44;102306.88;4969739;28;20085;-73
2021/03/20 04:48:34;;;;;;;1.90;1.52;;;;;;;1.28;72.55;102303.38;4965528;28;20039;-74
2021/03/20 04:51:07;;;;;;;4.07;1.88;;;;;;;1.34;72.29;102305.81;4967579;28;20034;-74
2021/03/20 04:53:33;;;;;;;4.53;2.08;;;;;;;1.34;72.65;102305.00;4969778;28;20399;-74
2021/03/20 04:56:08;;;;;;;6.93;1.80;;;;;;;1.26;73.10;102303.59;4969933;28;20031;-74
2021/03/20 04:58:43;;;;;;;3.47;1.73;;;;;;;1.32;73.55;102309.75;4952846;28;20027;-74
2021/03/20 05:01:57;;;;;;;3.72;1.95;;;;;;;1.26;74.01;102303.59;4963658;28;20038;-74
2021/03/20 05:04:31;;;;;;;5.85;2.28;;;;;;;1.10;74.24;102309.84;4941755;28;20058;-73
2021/03/20 05:07:01;;;;;;;2.80;1.63;;;;;;;1.04;74.68;102302.88;4969339;28;20042;-74
2021/03/20 05:09:29;;;;;;;3.45;1.95;;;;;;;1.07;75.64;102294.41;4957052;28;20028;-74
2021/03/20 05:11:59;;;;;;;5.85;1.75;;;;;;;1.15;74.46;102295.81;4965896;28;20042;-74
2021/03/20 05:14:36;;;;;;;3.63;2.08;;;;;;;1.27;74.30;102289.31;4970020;28;20093;-74
2021/03/20 05:17:06;;;;;;;2.60;1.80;;;;;;;1.22;74.24;102291.09;4974290;28;20039;-74
2021/03/20 05:19:31;;;;;;;5.70;1.98;;;;;;;1.11;75.47;102289.41;4962671;28;20027;-74
2021/03/20 05:21:57;;;;;;;3.05;2.00;;;;;;;1.12;75.46;102293.66;4974374;28;20440;-74
2021/03/20 05:24:27;;;;;;;4.00;2.15;;;;;;;1.04;76.04;102286.97;4973259;28;20031;-74
2021/03/20 05:26:53;;;;;;;4.03;2.22;;;;;;;1.02;76.77;102289.06;4969557;28;20178;-74
2021/03/20 05:29:19;;;;;;;5.03;2.45;;;;;;;0.90;77.07;102291.06;4971927;28;20077;-73
2021/03/20 05:31:45;;;;;;;7.60;2.95;;;;;;;0.88;78.06;102295.81;4977778;28;20053;-74
2021/03/20 05:34:23;;;;;;;4.95;3.05;;;;;;;0.91;78.24;102295.28;4966179;28;20039;-74
2021/03/20 05:36:49;;;;;;;6.57;2.40;;;;;;;1.13;77.91;102289.94;4970006;28;20030;-73
2021/03/20 05:39:16;;;;;;;3.97;2.25;;;;;;;1.18;77.27;102293.44;4973352;28;20077;-74
2021/03/20 05:42:13;;;;;;;7.30;2.75;;;;;;;1.29;76.56;102292.50;4967168;28;20031;-74
2021/03/20 05:45:16;;;;;;;5.70;2.42;;;;;;;1.24;77.25;102283.69;4942435;28;20802;-74
2021/03/20 05:48:00;;;;;;;4.65;2.40;;;;;;;1.27;77.46;102296.44;4967887;28;20027;-73
2021/03/20 05:50:35;;;;;;;8.18;2.47;;;;;;;1.23;77.27;102295.34;4973420;28;20047;-74
2021/03/20 05:53:39;;;;;;;6.75;2.47;;;;;;;1.27;77.65;102305.22;4967892;28;20062;-74
2021/03/20 05:56:16;;;;;;;4.82;2.20;;;;;;;1.43;77.26;102298.97;4971052;28;20118;-74
2021/03/20 05:58:59;;;;;;;9.40;2.28;;;;;;;1.47;76.87;102300.06;4976434;28;20077;-74
2021/03/20 06:02:15;;;;;;;4.25;2.10;;;;;;;1.74;75.70;102298.16;4974335;28;20519;-74
2021/03/20 06:04:45;;;;;;;4.05;1.80;;;;;;;1.81;75.83;102296.09;4938725;28;20038;-73
2021/03/20 06:07:19;;;;;;;4.40;1.98;;;;;;;1.89;75.80;102291.34;4978548;28;20038;-73
2021/03/20 06:10:12;;;;;;;3.00;1.88;;;;;;;1.92;75.35;102296.16;4979387;28;20061;-73
2021/03/20 06:12:57;;;;;;;4.40;1.90;;;;;;;1.79;76.36;102295.56;4973296;28;20491;-73
2021/03/20 06:15:32;;;;;;;11.80;2.00;;;;;;;1.80;76.10;102291.81;4976169;28;20487;-73
2021/03/20 06:18:07;;;;;;;3.55;2.22;;;;;;;1.86;75.59;102299.84;4977901;28;20034;-73
2021/03/20 06:20:32;;;;;;;4.70;2.13;;;;;;;1.96;75.38;102300.69;4965931;28;20121;-73
2021/03/20 06:23:17;;;;;;;3.92;1.92;;;;;;;2.02;74.62;102306.84;4975461;28;20129;-73
2021/03/20 06:25:59;;;;;;;3.60;1.80;;;;;;;1.99;73.03;102313.47;4971300;28;20035;-74
2021/03/20 06:28:47;;;;;;;3.47;1.90;;;;;;;1.96;73.73;102321.13;4970479;28;20035;-74
2021/03/20 06:31:46;;;;;;;3.63;1.92;;;;;;;1.99;73.10;102321.44;4971542;28;20078;-73
2021/03/20 06:34:24;;;;;;;4.60;1.85;;;;;;;2.18;72.29;102311.19;4973231;28;20035;-73
2021/03/20 06:37:09;;;;;;;2.15;1.52;;;;;;;2.22;71.79;102310.44;4967935;28;20399;-73
2021/03/20 06:39:40;;;;;;;1.95;1.42;;;;;;;2.33;71.16;102297.97;4960068;28;20089;-72
2021/03/20 06:42:21;;;;;;;3.58;1.63;;;;;;;2.22;71.00;102302.44;4965615;28;20034;-73
2021/03/20 06:44:48;;;;;;;5.55;1.73;;;;;;;2.24;71.81;102304.84;4970947;28;20045;-73
2021/03/20 06:47:24;;;;;;;3.50;1.92;;;;;;;2.32;70.29;102291.06;4972154;28;20423;-73
2021/03/20 06:50:11;;;;;;;5.53;2.10;;;;;;;2.24;69.86;102300.34;4969856;28;20035;-73
2021/03/20 06:52:38;;;;;;;4.30;1.77;;;;;;;2.24;70.01;102288.91;4969762;28;20090;-73
2021/03/20 06:55:18;;;;;;;4.43;1.92;;;;;;;2.30;70.20;102294.00;4966710;28;20410;-73
2021/03/20 06:57:47;;;;;;;3.28;1.83;;;;;;;2.55;69.92;102295.97;4975215;28;20455;-73
2021/03/20 07:00:31;;;;;;;6.38;1.55;;;;;;;2.49;69.64;102289.03;4971762;28;20034;-73
2021/03/20 07:03:15;;;;;;;5.88;1.88;;;;;;;2.62;68.95;102291.19;4966862;28;20097;-73
2021/03/20 07:06:06;;;;;;;4.80;1.55;;;;;;;2.64;68.39;102291.72;4966487;28;20039;-73
2021/03/20 07:08:53;;;;;;;3.15;1.33;;;;;;;2.79;67.09;102281.13;4966516;28;20043;-73
2021/03/20 07:11:36;;;;;;;7.38;1.20;;;;;;;2.78;66.66;102286.72;4967556;28;20496;-74
2021/03/20 07:14:09;;;;;;;6.22;1.50;;;;;;;2.76;66.98;102289.66;4974592;28;20053;-74
2021/03/20 07:17:04;;;;;;;2.35;1.20;;;;;;;2.82;66.43;102296.59;4969043;28;20050;-73
2021/03/20 07:19:30;;;;;;;3.75;1.40;;;;;;;2.83;66.30;102287.53;4963258;28;20046;-72
2021/03/20 07:21:56;;;;;;;2.80;1.48;;;;;;;2.89;65.28;102275.03;4976985;28;20503;-73
2021/03/20 07:24:38;;;;;;;3.20;0.95;;;;;;;2.95;65.25;102279.31;4978693;28;20513;-72
2021/03/20 07:27:06;;;;;;;5.90;1.30;;;;;;;2.91;64.85;102272.91;4968125;28;20035;-72
2021/03/20 07:29:37;;;;;;;3.83;1.23;;;;;;;2.83;64.59;102268.91;4983985;28;20049;-73
2021/03/20 07:32:03;;;;;;;5.43;1.55;;;;;;;3.02;63.71;102272.66;4967626;28;20039;-72
2021/03/20 07:34:32;;;;;;;3.75;1.48;;;;;;;2.89;63.42;102259.06;4983062;28;20597;-75
2021/03/20 07:37:02;;;;;;;3.97;1.38;;;;;;;3.08;63.57;102252.97;4972834;28;20452;-73
2021/03/20 07:39:37;;;;;;;5.15;1.33;;;;;;;3.03;63.12;102249.53;4971459;28;20544;-73
2021/03/20 07:42:08;;;;;;;4.05;1.30;;;;;;;3.11;62.96;102249.81;4975437;28;20519;-73
2021/03/20 07:44:55;;;;;;;4.00;1.35;;;;;;;3.17;62.46;102243.44;4969386;28;20054;-76
2021/03/20 07:47:24;;;;;;;4.60;1.65;;;;;;;3.26;61.86;102241.81;4970055;28;20415;-73
2021/03/20 07:50:25;;;;;;;3.00;1.30;;;;;;;3.28;62.61;102241.56;4969254;28;20492;-76
2021/03/20 07:53:02;;;;;;;2.90;1.08;;;;;;;3.46;62.79;102228.53;4967473;28;20031;-73
2021/03/20 07:55:31;;;;;;;4.22;1.30;;;;;;;3.53;62.45;102231.69;4978349;28;20054;-77
2021/03/20 07:58:00;;;;;;;4.88;1.30;;;;;;;3.77;60.99;102239.13;4968432;28;20114;-73
2021/03/20 08:00:30;;;;;;;6.45;1.20;;;;;;;3.71;60.89;102230.34;4968236;28;20070;-73
2021/03/20 08:03:17;;;;;;;4.63;1.30;;;;;;;3.82;61.52;102247.09;4967284;28;20034;-76
2021/03/20 08:05:42;;;;;;;3.33;1.10;;;;;;;3.85;60.92;102241.22;4968507;28;20433;-73
2021/03/20 08:08:26;;;;;;;3.22;1.30;;;;;;;4.01;59.27;102240.09;4971086;28;20038;-72
2021/03/20 08:10:54;;;;;;;2.95;1.20;;;;;;;4.01;58.95;102235.59;4969576;28;20057;-77
2021/03/20 08:13:49;;;;;;;3.45;1.42;;;;;;;4.13;58.89;102246.75;4970536;28;20101;-72
2021/03/20 08:16:17;;;;;;;5.45;1.38;;;;;;;4.10;59.12;102247.28;4969463;28;20296;-72
2021/03/20 08:18:43;;;;;;;2.65;1.30;;;;;;;4.21;58.61;102248.03;4970360;28;20487;-75
2021/03/20 08:21:14;;;;;;;3.30;1.50;;;;;;;4.27;58.37;102246.97;4967435;28;20034;-74
2021/03/20 08:24:08;;;;;;;2.80;1.38;;;;;;;4.25;58.23;102249.09;4969408;28;20134;-74
2021/03/20 08:26:39;;;;;;;4.45;1.38;;;;;;;4.58;57.53;102238.56;4967535;28;20057;-75
2021/03/20 08:29:11;;;;;;;3.50;1.45;;;;;;;4.72;57.83;102241.41;4981501;28;20062;-73
2021/03/20 08:31:39;;;;;;;;;;;;;;;4.83;57.26;102245.59;4963317;28;20404;-73
2021/03/20 08:34:35;;;;;;;3.00;1.33;;;;;;;4.89;56.97;102238.34;4960078;28;19914;-73
2021/03/20 08:37:28;;;;;;;2.83;1.40;;;;;;;4.91;55.85;102244.22;4925826;28;20055;-74
2021/03/20 08:40:38;;;;;;;3.42;1.50;;;;;;;5.05;54.60;102240.63;4964413;28;20058;-73
2021/03/20 08:43:22;;;;;;;3.55;1.30;;;;;;;5.09;53.72;102235.56;4966831;28;20038;-72
2021/03/20 08:46:02;;;;;;;3.25;1.25;;;;;;;5.04;53.36;102241.72;4967083;28;20035;-74
2021/03/20 08:48:30;;;;;;;3.40;1.10;;;;;;;5.01;53.66;102234.28;4969320;28;20101;-73
2021/03/20 08:51:11;;;;;;;1.50;1.13;;;;;;;4.98;53.02;102232.16;4972249;28;20554;-72
2021/03/20 08:53:52;;;;;;;2.95;1.48;;;;;;;5.16;54.03;102230.69;4971445;28;20376;-72
2021/03/20 08:56:35;;;;;;;2.43;1.13;;;;;;;5.37;52.15;102235.59;4973396;28;20129;-73
2021/03/20 08:59:04;;;;;;;5.93;1.42;;;;;;;5.35;52.84;102228.91;4970965;28;20042;-75
2021/03/20 09:01:58;;;;;;;1.08;0.82;;;;;;;5.39;51.86;102228.09;4969885;28;20030;-73
2021/03/20 09:04:28;;;;;;;5.75;1.10;;;;;;;5.50;51.63;102221.56;4969694;28;20514;-72
2021/03/20 09:07:05;;;;;;;4.45;1.40;;;;;;;5.47;51.94;102229.34;4969532;28;20035;-72
2021/03/20 09:09:32;;;;;;;2.33;1.33;;;;;;;5.65;51.41;102223.31;4970878;28;20093;-73
2021/03/20 09:12:26;;;;;;;2.72;1.15;;;;;;;5.82;50.06;102223.66;4971985;28;20073;-72
2021/03/20 09:14:52;;;;;;;2.55;1.05;;;;;;;5.79;51.07;102218.09;4970777;28;20050;-75
2021/03/20 09:17:23;;;;;;;3.95;1.13;;;;;;;5.73;50.14;102229.91;4972062;28;20488;-73
2021/03/20 09:19:54;;;;;;;;;;;;;;;5.74;48.69;102234.97;4970458;28;20073;-72
2021/03/20 09:22:26;;;;;;;3.75;1.20;;;;;;;5.77;48.89;102238.97;4968698;28;20008;-73
2021/03/20 09:24:53;;;;;;;1.48;1.00;;;;;;;5.85;48.55;102224.97;4971481;28;20708;-73
2021/03/20 09:27:56;;;;;;;1.30;1.00;;;;;;;5.62;48.95;102225.72;4971021;28;20047;-73
2021/03/20 09:30:49;;;;;;;2.08;1.10;;;;;;;5.81;49.74;102226.59;4983209;28;20030;-74
2021/03/20 09:33:27;;;;;;;2.22;1.13;;;;;;;5.92;48.72;102226.22;4968049;28;20027;-73
2021/03/20 09:35:53;;;;;;;2.95;1.02;;;;;;;5.83;49.20;102219.94;4969519;28;20462;-74
2021/03/20 09:38:33;;;;;;;2.63;0.98;;;;;;;5.89;49.26;102208.09;4968894;28;20141;-74
2021/03/20 09:41:19;;;;;;;1.35;1.02;;;;;;;5.94;49.47;102210.72;4978321;28;20043;-74
2021/03/20 09:43:50;;;;;;;2.47;0.95;;;;;;;5.97;49.84;102212.03;4969511;28;20049;-74
2021/03/20 09:46:37;;;;;;;;;;;;;;;6.04;50.11;102209.81;4972989;28;20109;-74
2021/03/20 09:49:06;;;;;;;2.00;1.20;;;;;;;6.15;49.06;102219.31;4963168;28;20036;-74
2021/03/20 09:51:59;;;;;;;2.85;1.10;;;;;;;6.12;49.31;102222.53;4966731;28;20053;-74
2021/03/20 09:54:24;;;;;;;2.25;1.20;;;;;;;6.04;48.67;102205.25;4968405;28;20403;-74
2021/03/20 09:56:54;;;;;;;2.95;1.35;;;;;;;6.05;48.99;102211.41;4966610;28;20042;-74
2021/03/20 09:59:37;;;;;;;4.30;1.38;;;;;;;6.07;49.07;102203.88;4965054;28;20031;-74
2021/03/20 10:02:23;;;;;;;1.38;1.10;;;;;;;5.98;49.32;102205.59;4968844;28;20122;-74
2021/03/20 10:04:51;;;;;;;4.40;1.50;;;;;;;6.06;48.91;102195.06;4971387;28;20078;-74
2021/03/20 10:07:23;;;;;;;2.40;1.38;;;;;;;6.07;51.50;102193.19;4971835;28;20109;-73
2021/03/20 10:10:06;;;;;;;2.60;1.40;;;;;;;6.18;51.52;102194.66;4968079;28;20484;-73
2021/03/20 10:12:44;;;;;;;4.63;1.73;;;;;;;6.20;49.49;102182.59;4968833;28;20035;-73
2021/03/20 10:15:15;;;;;;;2.08;1.00;;;;;;;6.08;49.39;102179.53;4968477;28;20034;-74
2021/03/20 10:18:06;;;;;;;3.45;1.60;;;;;;;6.17;49.13;102182.38;4970978;28;20069;-74
2021/03/20 10:20:48;;;;;;;2.97;1.40;;;;;;;6.15;48.62;102173.84;4967155;28;20039;-73
2021/03/20 10:23:52;;;;;;;8.13;1.58;;;;;;;6.17;49.66;102174.34;4971668;28;20113;-73
2021/03/20 10:26:26;;;;;;;4.78;1.52;;;;;;;6.11;49.04;102168.28;4987656;28;20034;-74
2021/03/20 10:29:00;;;;;;;3.53;1.50;;;;;;;6.26;50.07;102180.66;4968642;28;20038;-74
2021/03/20 10:31:28;;;;;;;5.45;1.70;;;;;;;6.30;49.71;102160.25;4963821;28;20031;-74
2021/03/20 10:34:09;;;;;;;3.95;1.38;;;;;;;6.45;50.02;102164.59;4968935;28;20070;-74
2021/03/20 10:36:39;;;;;;;6.50;1.80;;;;;;;6.33;49.98;102148.97;4967024;28;20035;-74
2021/03/20 10:39:22;;;;;;;2.72;1.45;;;;;;;6.44;50.71;102158.47;4970462;28;20046;-74
2021/03/20 10:41:50;;;;;;;1.92;1.35;;;;;;;6.58;51.03;102151.28;4969815;28;20093;-74
2021/03/20 10:44:19;;;;;;;3.22;1.67;;;;;;;6.60;50.83;102141.09;4987873;28;20499;-74
2021/03/20 10:46:46;;;;;;;5.00;1.70;;;;;;;6.99;51.17;102138.84;4969208;28;20027;-74
2021/03/20 10:49:22;;;;;;;4.65;1.73;;;;;;;7.33;50.76;102133.19;4967162;28;20070;-74
2021/03/20 10:51:54;;;;;;;7.10;1.83;;;;;;;7.07;50.10;102137.38;4968542;28;20051;-74
2021/03/20 10:54:43;;;;;;;3.03;1.80;;;;;;;7.17;51.05;102142.56;4964307;28;20031;-74
2021/03/20 10:57:16;;;;;;;2.33;1.60;;;;;;;7.21;49.84;102133.66;4952009;28;20484;-74
2021/03/20 10:59:47;;;;;;;3.88;1.80;;;;;;;7.20;49.30;102132.06;4965039;28;20054;-74
2021/03/20 11:02:20;;;;;;;3.03;2.03;;;;;;;6.94;50.62;102133.59;4968365;28;20030;-74
2021/03/20 11:04:46;;;;;;;2.67;1.77;;;;;;;7.24;50.24;102125.00;4966585;28;20035;-74
2021/03/20 11:07:16;;;;;;;3.20;1.77;;;;;;;7.29;51.12;102122.25;4969759;28;20101;-74
2021/03/20 11:09:42;;;;;;;4.85;1.77;;;;;;;7.35;50.68;102119.47;4967499;28;20073;-74
2021/03/20 11:12:32;;;;;;;4.85;2.25;;;;;;;7.05;50.91;102124.28;4965139;28;20062;-74
2021/03/20 11:14:59;;;;;;;3.25;1.85;;;;;;;7.21;51.23;102117.59;4969648;28;20066;-74
2021/03/20 11:17:29;;;;;;;4.22;2.33;;;;;;;7.30;51.14;102115.81;4967652;28;20031;-74
2021/03/20 11:20:01;;;;;;;3.00;2.30;;;;;;;7.20;50.40;102113.31;4966273;28;20456;-74
2021/03/20 11:22:39;;;;;;;5.55;2.60;;;;;;;7.08;51.68;102109.53;4965782;28;21066;-73
2021/03/20 11:25:16;;;;;;;5.93;2.67;;;;;;;6.77;52.55;102103.09;4966419;28;20034;-74
2021/03/20 11:27:42;;;;;;;3.17;2.08;;;;;;;6.45;53.07;102108.41;4967810;28;20109;-73
2021/03/20 11:30:18;;;;;;;5.28;2.53;;;;;;;6.67;53.41;102104.06;4968809;28;20551;-74
2021/03/20 11:32:46;;;;;;;5.03;2.72;;;;;;;6.88;53.11;102105.31;4968049;28;20026;-73
2021/03/20 11:35:11;;;;;;;7.15;2.72;;;;;;;6.77;53.38;102095.06;4968063;28;20042;-74
2021/03/20 11:38:01;;;;;;;4.57;2.55;;;;;;;7.07;53.60;102083.81;4967887;28;20027;-74
2021/03/20 11:40:37;;;;;;;4.88;2.40;;;;;;;6.93;52.61;102073.09;4927435;29;20551;-74
2021/03/20 11:43:13;;;;;;;5.35;2.78;;;;;;;7.26;53.39;102076.50;4919825;29;20043;-74
2021/03/20 11:45:41;;;;;;;5.70;2.53;;;;;;;7.36;53.88;102072.81;4926352;29;20421;-74
2021/03/20 11:48:34;;;;;;;5.00;2.63;;;;;;;7.15;53.71;102059.84;4928581;29;20501;-74
2021/03/20 11:51:02;;;;;;;4.25;2.40;;;;;;;7.64;54.91;102067.19;4929570;29;20051;-74
2021/03/20 11:53:32;;;;;;;4.55;2.55;;;;;;;8.07;54.43;102054.94;4930343;29;20027;-74
2021/03/20 11:55:59;;;;;;;5.72;2.88;;;;;;;8.30;51.68;102057.69;4930019;29;20040;-74
2021/03/20 11:58:27;;;;;;;5.25;2.67;;;;;;;8.33;52.08;102052.50;4930445;29;20126;-74
2021/03/20 12:00:53;;;;;;;4.25;3.00;;;;;;;8.52;51.77;102055.00;4927262;29;20044;-74
2021/03/20 12:03:21;;;;;;;8.63;2.97;;;;;;;8.78;52.21;102050.59;4930148;29;20075;-74
2021/03/20 12:06:10;;;;;;;3.38;2.58;;;;;;;8.70;51.51;102043.28;4927051;29;20059;-74
2021/03/20 12:08:42;;;;;;;3.78;2.60;;;;;;;8.97;51.24;102030.47;4929879;29;20040;-73
2021/03/20 12:11:10;;;;;;;6.88;3.15;;;;;;;9.51;50.97;102025.72;4927115;29;20048;-74